La Manuela, Argentina
Current Conditions -  °F | °C
As of 3:00 PM on Monday 24 Nov 2014 (Local Time) from SAEZ Reporting Station
Light Rain Light Rain  
Wind Chill: 72°   Ceiling: 9000
Heat Index: 72°   Visibility: 6mi
Dew Point: 66°   Wind: 5mph
Humidity: 83%   Direction: 270°W
Pressure: 29.8"   Gusts: NA
Location:  36.78°S, 62.17°W
Report Text: SAEZ 241800Z 27004KT 9000 -RA FEW008 SCT020 OVC090 22/19 Q1009
Loading
Personal Weather Stations






























Interactive Weather Map New forecast layout! Learn more

10-Day Weather Forecast

Advertisements
Track Severe Weather on mobile